Broomfield, Colorado
Current Conditions -  °F | °C
As of 2:55 AM on Saturday 29 Nov 2014 (Local Time) from KBJC Reporting Station
Clear Clear  
Wind Chill: 50°   Ceiling: Unl
Heat Index: 50°   Visibility: 10mi
Dew Point:   Wind: 7mph
Humidity: 17%   Direction: 220°SW
Pressure: 29.75"   Gusts: NA
Location:  39.92°N, 105.06°W
Report Text: KBJC 290955Z AUTO 22006KT 10SM CLR 10/M14 A2975 RMK AO2
Loading
Personal Weather Stations






























Interactive Weather Map New forecast layout! Learn more

10-Day Weather Forecast

Advertisements
Track Severe Weather on mobile